Crescent, Iowa
Current Conditions -  °F | °C
As of 3:52 AM on Sunday 21 Dec 2014 (Local Time) from KOMA Reporting Station
Haze Haze  
Wind Chill: 27°   Ceiling: 600
Heat Index: 36°   Visibility: 4mi
Dew Point: 34°   Wind: 15mph
Humidity: 93%   Direction: 150°SSE
Pressure: 29.96"   Gusts: NA
Location:  41.37°N, 95.86°W
Report Text: KOMA 210952Z 15013KT 4SM BR OVC006 02/01 A2996 RMK AO2 SLP152 T00220011
Loading
Personal Weather Stations






























Interactive Weather Map New forecast layout! Learn more

10-Day Weather Forecast

Advertisements
Track Severe Weather on mobile